createdAt,value
2023-01-10T00:01:25.948Z,4.68
2023-01-10T00:03:57.419Z,4.90
2023-01-10T00:06:28.842Z,4.90
2023-01-10T00:09:00.225Z,4.55
2023-01-10T00:11:31.697Z,5.18
2023-01-10T00:14:03.090Z,4.97
2023-01-10T00:16:34.873Z,5.40
2023-01-10T00:19:07.172Z,5.20
2023-01-10T00:21:38.855Z,5.18
2023-01-10T00:24:11.168Z,5.75
2023-01-10T00:26:44.402Z,5.28
2023-01-10T00:29:15.952Z,5.38
2023-01-10T00:31:47.948Z,4.63
2023-01-10T00:34:19.792Z,5.45
2023-01-10T00:36:51.271Z,5.45
2023-01-10T00:39:22.670Z,4.82
2023-01-10T00:41:54.080Z,4.90
2023-01-10T00:44:25.768Z,5.15
2023-01-10T00:46:57.208Z,5.20
2023-01-10T00:49:28.687Z,6.00
2023-01-10T00:52:00.205Z,5.30
2023-01-10T00:54:31.939Z,6.00
2023-01-10T00:57:03.411Z,5.35
2023-01-10T00:59:34.868Z,4.97
2023-01-10T01:02:06.522Z,5.17
2023-01-10T01:04:37.975Z,5.53
2023-01-10T01:07:09.412Z,6.43
2023-01-10T01:09:40.989Z,5.30
2023-01-10T01:12:12.399Z,5.97
2023-01-10T01:14:43.833Z,6.15
2023-01-10T01:17:15.353Z,5.90
2023-01-10T01:19:46.807Z,5.78
2023-01-10T01:22:18.283Z,5.97
2023-01-10T01:24:49.737Z,6.20
2023-01-10T01:27:21.180Z,6.80
2023-01-10T01:29:52.580Z,5.97
2023-01-10T01:32:24.677Z,6.82
2023-01-10T01:34:56.431Z,6.35
2023-01-10T01:37:28.040Z,6.18
2023-01-10T01:39:59.746Z,6.43
2023-01-10T01:42:34.706Z,6.57
2023-01-10T01:45:09.122Z,6.80
2023-01-10T01:47:48.345Z,6.07
2023-01-10T01:50:26.581Z,7.18
2023-01-10T01:53:02.227Z,6.53
2023-01-10T01:55:35.670Z,6.40
2023-01-10T01:58:18.095Z,7.40
2023-01-10T02:00:49.835Z,6.03
2023-01-10T02:03:21.405Z,7.70
2023-01-10T02:05:53.561Z,6.45
2023-01-10T02:08:25.008Z,6.57
2023-01-10T02:11:09.545Z,7.03
2023-01-10T02:13:43.842Z,6.70
2023-01-10T02:16:15.320Z,6.20
2023-01-10T02:18:46.762Z,5.53
2023-01-10T02:21:37.198Z,5.78
2023-01-10T02:24:30.131Z,5.97
2023-01-10T02:27:14.672Z,6.18
2023-01-10T02:30:12.036Z,6.70
2023-01-10T02:33:05.528Z,5.57
2023-01-10T02:36:10.922Z,6.18
2023-01-10T02:39:09.849Z,5.75
2023-01-10T02:41:56.457Z,6.10
2023-01-10T02:44:31.141Z,6.22
2023-01-10T02:47:04.350Z,6.22
2023-01-10T02:49:47.451Z,5.97
2023-01-10T02:52:27.911Z,5.60
2023-01-10T02:55:02.437Z,6.15
2023-01-10T02:57:59.668Z,5.80
2023-01-10T03:00:44.109Z,6.05
2023-01-10T03:03:26.373Z,5.78
2023-01-10T03:06:34.806Z,6.05
2023-01-10T03:09:24.451Z,6.38
2023-01-10T03:12:04.567Z,6.28
2023-01-10T03:14:38.312Z,6.82
2023-01-10T03:17:13.552Z,6.30
2023-01-10T03:19:51.011Z,5.97
2023-01-10T03:22:25.782Z,6.05
2023-01-10T03:25:00.846Z,6.37
2023-01-10T03:28:14.835Z,5.97
2023-01-10T03:30:51.162Z,6.50
2023-01-10T03:33:26.929Z,6.07
2023-01-10T03:36:37.373Z,6.20
2023-01-10T03:39:31.532Z,6.15
2023-01-10T03:42:09.107Z,6.40
2023-01-10T03:44:50.669Z,6.68
2023-01-10T03:47:45.229Z,6.25
2023-01-10T03:50:27.382Z,6.32
2023-01-10T03:52:59.548Z,6.82
2023-01-10T03:55:32.642Z,7.32
2023-01-10T03:58:04.101Z,6.28
2023-01-10T04:00:35.559Z,7.13
2023-01-10T04:03:07.424Z,6.57
2023-01-10T04:05:38.972Z,6.15
2023-01-10T04:08:10.427Z,6.03
2023-01-10T04:10:41.904Z,6.40
2023-01-10T04:13:13.312Z,5.72
2023-01-10T04:15:44.714Z,5.00
2023-01-10T04:18:16.146Z,6.85
2023-01-10T04:20:47.642Z,6.20
2023-01-10T04:23:19.133Z,6.40
2023-01-10T04:25:50.523Z,6.68
2023-01-10T04:28:24.377Z,6.50
2023-01-10T04:30:56.026Z,6.32
2023-01-10T04:33:27.540Z,6.65
2023-01-10T04:35:59.115Z,6.63
2023-01-10T04:38:30.592Z,6.55
2023-01-10T04:41:02.007Z,6.38
2023-01-10T04:43:33.446Z,6.90
2023-01-10T04:46:05.087Z,6.30
2023-01-10T04:48:36.535Z,5.68
2023-01-10T04:51:08.041Z,6.63
2023-01-10T04:53:39.556Z,7.10
2023-01-10T04:56:22.099Z,7.18
2023-01-10T04:58:54.197Z,6.57
2023-01-10T05:01:26.151Z,6.80
2023-01-10T05:03:57.629Z,6.78
2023-01-10T05:06:29.071Z,6.50
2023-01-10T05:09:00.489Z,7.00
2023-01-10T05:11:31.993Z,6.30
2023-01-10T05:14:03.616Z,6.55
2023-01-10T05:16:35.110Z,6.80
2023-01-10T05:19:06.578Z,6.80
2023-01-10T05:21:38.052Z,5.90
2023-01-10T05:24:09.633Z,6.95
2023-01-10T05:26:41.075Z,6.20
2023-01-10T05:29:13.000Z,6.28
2023-01-10T05:31:44.504Z,6.18
2023-01-10T05:34:15.927Z,6.57
2023-01-10T05:36:47.364Z,6.03
2023-01-10T05:39:18.829Z,6.78
2023-01-10T05:41:50.280Z,5.75
2023-01-10T05:44:21.798Z,6.53
2023-01-10T05:46:53.199Z,6.45
2023-01-10T05:49:24.643Z,6.15
2023-01-10T05:51:56.054Z,6.22
2023-01-10T05:54:27.473Z,6.10
2023-01-10T05:56:59.098Z,6.18
2023-01-10T05:59:30.528Z,6.30
2023-01-10T06:02:01.935Z,5.82
2023-01-10T06:04:33.352Z,6.60
2023-01-10T06:07:04.767Z,6.10
2023-01-10T06:09:36.174Z,6.60
2023-01-10T06:12:07.669Z,6.72
2023-01-10T06:14:39.121Z,6.32
2023-01-10T06:17:10.619Z,6.38
2023-01-10T06:19:42.066Z,6.68
2023-01-10T06:22:13.617Z,6.80
2023-01-10T06:24:45.068Z,6.63
2023-01-10T06:27:16.490Z,6.90
2023-01-10T06:29:47.958Z,7.05
2023-01-10T06:32:19.349Z,6.45
2023-01-10T06:34:50.809Z,6.05
2023-01-10T06:37:22.217Z,6.40
2023-01-10T06:39:53.662Z,7.15
2023-01-10T06:42:25.459Z,6.50
2023-01-10T06:44:56.937Z,5.93
2023-01-10T06:47:28.374Z,6.37
2023-01-10T06:49:59.792Z,6.40
2023-01-10T06:52:31.396Z,6.47
2023-01-10T06:55:02.782Z,6.78
2023-01-10T06:57:34.246Z,7.05
2023-01-10T07:00:08.751Z,6.32
2023-01-10T07:02:40.192Z,6.97
2023-01-10T07:05:11.743Z,7.50
2023-01-10T07:07:43.195Z,5.40
2023-01-10T07:10:14.712Z,5.75
2023-01-10T07:12:46.193Z,6.15
2023-01-10T07:15:17.647Z,6.05
2023-01-10T07:17:49.066Z,6.40
2023-01-10T07:20:20.530Z,6.45
2023-01-10T07:22:59.709Z,6.47
2023-01-10T07:25:31.385Z,7.07
2023-01-10T07:28:04.996Z,7.03
2023-01-10T07:30:36.439Z,6.67
2023-01-10T07:33:07.867Z,6.63
2023-01-10T07:35:39.434Z,6.20
2023-01-10T07:38:10.911Z,6.22
2023-01-10T07:40:42.358Z,6.60
2023-01-10T07:43:13.794Z,6.93
2023-01-10T07:45:46.412Z,6.63
2023-01-10T07:48:17.837Z,6.40
2023-01-10T07:50:49.284Z,6.57
2023-01-10T07:53:20.734Z,6.47
2023-01-10T07:55:52.314Z,6.25
2023-01-10T07:58:23.701Z,6.90
2023-01-10T08:00:59.650Z,7.25
2023-01-10T08:03:31.420Z,6.03
2023-01-10T08:06:05.564Z,6.95
2023-01-10T08:08:37.872Z,6.80
2023-01-10T08:11:09.270Z,6.80
2023-01-10T08:13:40.768Z,7.63
2023-01-10T08:16:12.284Z,6.53
2023-01-10T08:18:43.716Z,7.93
2023-01-10T08:21:15.240Z,6.80
2023-01-10T08:23:46.682Z,7.18
2023-01-10T08:26:18.812Z,8.13
2023-01-10T08:28:50.259Z,6.70
2023-01-10T08:31:21.787Z,6.63
2023-01-10T08:33:53.528Z,6.72
2023-01-10T08:36:24.984Z,6.45
2023-01-10T08:38:56.423Z,7.20
2023-01-10T08:41:27.856Z,7.47
2023-01-10T08:43:59.398Z,7.22
2023-01-10T08:46:30.831Z,6.90
2023-01-10T08:49:02.273Z,6.93
2023-01-10T08:51:33.794Z,7.25
2023-01-10T08:54:05.253Z,6.88
2023-01-10T08:56:36.790Z,6.28
2023-01-10T08:59:08.481Z,7.30
2023-01-10T09:01:40.085Z,7.40
2023-01-10T09:04:11.798Z,6.85
2023-01-10T09:06:43.265Z,7.13
2023-01-10T09:09:14.741Z,6.97
2023-01-10T09:11:46.225Z,7.05
2023-01-10T09:14:17.622Z,6.53
2023-01-10T09:16:50.203Z,6.55
2023-01-10T09:19:21.646Z,7.07
2023-01-10T09:21:53.070Z,6.78
2023-01-10T09:24:24.514Z,7.47
2023-01-10T09:26:55.919Z,7.10
2023-01-10T09:29:27.391Z,6.57
2023-01-10T09:31:58.803Z,7.72
2023-01-10T09:34:30.268Z,6.50
2023-01-10T09:37:01.749Z,7.70
2023-01-10T09:39:34.175Z,7.20
2023-01-10T09:42:43.547Z,7.22
2023-01-10T09:45:53.291Z,6.85
2023-01-10T09:48:53.167Z,7.20
2023-01-10T09:51:27.235Z,7.43
2023-01-10T09:54:11.018Z,7.47
2023-01-10T09:56:47.459Z,6.77
2023-01-10T09:59:23.599Z,6.78
2023-01-10T10:02:04.502Z,7.43
2023-01-10T10:04:37.441Z,7.27
2023-01-10T10:07:14.389Z,6.90
2023-01-10T10:09:45.852Z,6.97
2023-01-10T10:12:33.142Z,6.65
2023-01-10T10:15:32.019Z,6.25
2023-01-10T10:18:18.916Z,6.35
2023-01-10T10:21:10.643Z,6.05
2023-01-10T10:23:44.995Z,6.15
2023-01-10T10:26:22.347Z,7.07
2023-01-10T10:29:23.994Z,7.32
2023-01-10T10:32:09.073Z,6.97
2023-01-10T10:34:48.090Z,7.68
2023-01-10T10:37:42.742Z,7.68
2023-01-10T10:40:14.161Z,7.38
2023-01-10T10:42:55.052Z,7.00
2023-01-10T10:45:38.266Z,6.90
2023-01-10T10:48:21.329Z,6.57
2023-01-10T10:51:07.781Z,7.20
2023-01-10T10:53:39.196Z,6.82
2023-01-10T10:56:15.921Z,7.30
2023-01-10T10:58:51.587Z,6.43
2023-01-10T11:01:25.514Z,6.80
2023-01-10T11:04:06.681Z,7.72
2023-01-10T11:06:40.637Z,7.85
2023-01-10T11:09:12.583Z,6.95
2023-01-10T11:11:46.967Z,7.03
2023-01-10T11:14:46.420Z,7.25
2023-01-10T11:17:36.029Z,7.20
2023-01-10T11:20:16.473Z,6.72
2023-01-10T11:22:52.184Z,7.13
2023-01-10T11:25:23.825Z,7.07
2023-01-10T11:27:59.097Z,7.00
2023-01-10T11:30:32.789Z,6.53
2023-01-10T11:33:20.160Z,7.43
2023-01-10T11:36:10.052Z,7.28
2023-01-10T11:39:00.902Z,7.13
2023-01-10T11:41:32.331Z,6.65
2023-01-10T11:44:36.232Z,7.10
2023-01-10T11:47:12.666Z,7.45
2023-01-10T11:49:44.319Z,6.78
2023-01-10T11:52:28.396Z,6.60
2023-01-10T11:55:00.540Z,6.85
2023-01-10T11:57:32.658Z,6.75
2023-01-10T12:00:09.639Z,6.70
2023-01-10T12:02:43.531Z,5.85
2023-01-10T12:05:22.888Z,6.45
2023-01-10T12:08:03.899Z,6.07
2023-01-10T12:10:35.853Z,5.95
2023-01-10T12:13:14.654Z,6.93
2023-01-10T12:15:46.099Z,5.68
2023-01-10T12:18:18.809Z,6.43
2023-01-10T12:20:52.560Z,6.30
2023-01-10T12:23:25.560Z,6.53
2023-01-10T12:26:11.137Z,7.15
2023-01-10T12:29:09.081Z,6.03
2023-01-10T12:31:40.655Z,6.33
2023-01-10T12:34:21.568Z,6.10
2023-01-10T12:37:05.552Z,6.55
2023-01-10T12:39:41.130Z,6.18
2023-01-10T12:42:21.367Z,6.65
2023-01-10T12:45:31.233Z,6.13
2023-01-10T12:48:12.877Z,6.45
2023-01-10T12:50:49.561Z,6.72
2023-01-10T12:53:46.049Z,6.68
2023-01-10T12:56:17.936Z,6.45
2023-01-10T12:58:55.047Z,6.93
2023-01-10T13:01:33.210Z,7.03
2023-01-10T13:04:13.980Z,6.43
2023-01-10T13:06:45.650Z,6.95
2023-01-10T13:09:22.919Z,5.97
2023-01-10T13:12:24.007Z,6.07
2023-01-10T13:15:24.328Z,5.87
2023-01-10T13:18:25.547Z,6.22
2023-01-10T13:21:09.870Z,6.65
2023-01-10T13:23:50.139Z,5.70
2023-01-10T13:26:21.638Z,6.25
2023-01-10T13:28:56.989Z,5.95
2023-01-10T13:31:32.202Z,6.37
2023-01-10T13:34:15.442Z,5.72
2023-01-10T13:36:59.830Z,5.78
2023-01-10T13:39:33.932Z,6.55
2023-01-10T13:42:05.358Z,6.13
2023-01-10T13:45:01.806Z,6.18
2023-01-10T13:47:39.073Z,6.00
2023-01-10T13:50:22.754Z,5.65
2023-01-10T13:53:18.045Z,5.22
2023-01-10T13:55:56.520Z,5.93
2023-01-10T13:58:40.715Z,5.68
2023-01-10T14:01:36.463Z,5.72
2023-01-10T14:04:08.269Z,5.43
2023-01-10T14:06:39.781Z,5.10
2023-01-10T14:09:14.065Z,5.40
2023-01-10T14:11:45.428Z,5.03
2023-01-10T14:14:25.636Z,5.38
2023-01-10T14:17:10.408Z,4.85
2023-01-10T14:19:44.828Z,4.55
2023-01-10T14:22:47.040Z,4.87
2023-01-10T14:25:21.265Z,4.60
2023-01-10T14:27:54.199Z,4.70
2023-01-10T14:30:32.545Z,4.55
2023-01-10T14:33:12.743Z,4.53
2023-01-10T14:35:47.228Z,3.87
2023-01-10T14:38:24.857Z,4.50
2023-01-10T14:41:04.099Z,4.70
2023-01-10T14:44:19.818Z,4.30
2023-01-10T14:46:54.262Z,3.88
2023-01-10T14:49:28.536Z,4.35
2023-01-10T14:52:20.496Z,3.95
2023-01-10T14:55:12.260Z,4.10
2023-01-10T14:58:02.519Z,4.03
2023-01-10T15:00:35.836Z,4.50
2023-01-10T15:03:07.277Z,3.20
2023-01-10T15:05:46.402Z,4.75
2023-01-10T15:08:28.315Z,3.95
2023-01-10T15:11:07.611Z,3.50
2023-01-10T15:13:50.558Z,4.07
2023-01-10T15:16:24.651Z,4.03
2023-01-10T15:18:56.683Z,3.67
2023-01-10T15:21:28.645Z,3.63
2023-01-10T15:24:00.060Z,3.20
2023-01-10T15:26:31.495Z,3.97
2023-01-10T15:29:10.609Z,3.30
2023-01-10T15:31:42.853Z,3.17
2023-01-10T15:34:21.038Z,3.42
2023-01-10T15:36:55.804Z,3.40
2023-01-10T15:39:31.330Z,3.20
2023-01-10T15:42:12.508Z,3.40
2023-01-10T15:44:45.470Z,2.87
2023-01-10T15:47:37.163Z,2.10
2023-01-10T15:50:32.991Z,2.50
2023-01-10T15:53:10.049Z,2.35
2023-01-10T15:55:53.268Z,2.60
2023-01-10T15:58:32.664Z,1.88
2023-01-10T16:01:04.647Z,2.50
2023-01-10T16:03:39.252Z,2.22
2023-01-10T16:06:21.710Z,2.10
2023-01-10T16:08:55.942Z,1.92
2023-01-10T16:11:47.951Z,1.95
2023-01-10T16:14:19.418Z,2.10
2023-01-10T16:16:51.151Z,2.25
2023-01-10T16:19:22.599Z,2.00
2023-01-10T16:21:56.761Z,2.20
2023-01-10T16:24:33.899Z,2.30
2023-01-10T16:27:06.054Z,2.15
2023-01-10T16:29:37.641Z,2.05
2023-01-10T16:32:14.179Z,2.08
2023-01-10T16:34:45.592Z,2.08
2023-01-10T16:37:17.034Z,2.40
2023-01-10T16:39:48.421Z,2.40
2023-01-10T16:42:19.873Z,2.40
2023-01-10T16:44:51.317Z,3.00
2023-01-10T16:47:22.788Z,3.10
2023-01-10T16:49:54.223Z,3.80
2023-01-10T16:52:25.636Z,3.63
2023-01-10T16:54:57.029Z,4.00
2023-01-10T16:57:28.484Z,5.32
2023-01-10T16:59:59.938Z,4.97
2023-01-10T17:02:31.405Z,5.53
2023-01-10T17:05:02.895Z,5.57
2023-01-10T17:07:34.412Z,5.78
2023-01-10T17:10:06.234Z,6.00
2023-01-10T17:12:38.828Z,6.43
2023-01-10T17:15:13.463Z,6.20
2023-01-10T17:17:44.900Z,6.32
2023-01-10T17:20:16.730Z,6.00
2023-01-10T17:22:48.118Z,6.75
2023-01-10T17:25:19.681Z,6.70
2023-01-10T17:27:51.131Z,6.53
2023-01-10T17:30:22.622Z,6.65
2023-01-10T17:32:54.031Z,7.10
2023-01-10T17:35:25.930Z,7.00
2023-01-10T17:37:57.337Z,7.10
2023-01-10T17:40:28.699Z,6.67
2023-01-10T17:43:00.169Z,7.97
2023-01-10T17:45:31.601Z,7.95
2023-01-10T17:48:03.071Z,7.82
2023-01-10T17:50:35.700Z,8.95
2023-01-10T17:53:07.189Z,7.97
2023-01-10T17:55:46.324Z,8.38
2023-01-10T17:58:18.409Z,8.13
2023-01-10T18:00:49.925Z,7.83
2023-01-10T18:03:21.452Z,7.82
2023-01-10T18:05:55.828Z,9.07
2023-01-10T18:08:27.257Z,9.52
2023-01-10T18:11:00.465Z,9.02
2023-01-10T18:13:31.955Z,9.07
2023-01-10T18:16:03.823Z,9.15
2023-01-10T18:18:35.340Z,9.35
2023-01-10T18:21:16.677Z,9.70
2023-01-10T18:23:48.069Z,9.70
2023-01-10T18:26:19.493Z,9.57
2023-01-10T18:28:50.877Z,9.70
2023-01-10T18:31:22.439Z,9.32
2023-01-10T18:33:53.900Z,10.15
2023-01-10T18:36:25.376Z,9.38
2023-01-10T18:38:57.136Z,9.00
2023-01-10T18:41:28.567Z,9.45
2023-01-10T18:44:00.433Z,8.73
2023-01-10T18:46:31.982Z,9.40
2023-01-10T18:49:03.454Z,10.00
2023-01-10T18:51:34.905Z,9.48
2023-01-10T18:54:06.357Z,9.03
2023-01-10T18:56:37.766Z,8.85
2023-01-10T18:59:09.248Z,8.98
2023-01-10T19:01:41.501Z,8.65
2023-01-10T19:04:13.019Z,8.25
2023-01-10T19:06:44.594Z,8.30
2023-01-10T19:09:16.038Z,8.25
2023-01-10T19:11:47.409Z,8.05
2023-01-10T19:14:18.896Z,7.75
2023-01-10T19:16:50.548Z,7.40
2023-01-10T19:19:21.989Z,7.05
2023-01-10T19:21:53.420Z,7.32
2023-01-10T19:24:27.625Z,7.28
2023-01-10T19:26:59.438Z,6.38
2023-01-10T19:29:30.996Z,6.47
2023-01-10T19:32:02.694Z,7.32
2023-01-10T19:34:34.117Z,6.35
2023-01-10T19:37:05.608Z,5.97
2023-01-10T19:39:37.595Z,6.47
2023-01-10T19:42:09.055Z,6.25
2023-01-10T19:44:41.814Z,6.50
2023-01-10T19:47:13.239Z,6.38
2023-01-10T19:49:44.628Z,6.47
2023-01-10T19:52:16.048Z,6.40
2023-01-10T19:54:47.691Z,6.50
2023-01-10T19:57:19.126Z,6.90
2023-01-10T19:59:50.548Z,6.32
2023-01-10T20:02:22.010Z,7.50
2023-01-10T20:04:55.390Z,7.40
2023-01-10T20:07:26.883Z,6.90
2023-01-10T20:09:58.632Z,7.37
2023-01-10T20:12:30.077Z,6.30
2023-01-10T20:15:01.573Z,6.30
2023-01-10T20:17:33.162Z,6.15
2023-01-10T20:20:05.138Z,6.75
2023-01-10T20:22:36.625Z,6.27
2023-01-10T20:25:08.524Z,6.90
2023-01-10T20:27:39.964Z,7.38
2023-01-10T20:30:11.802Z,7.40
2023-01-10T20:32:43.234Z,6.60
2023-01-10T20:35:14.674Z,6.47
2023-01-10T20:37:46.077Z,6.30
2023-01-10T20:40:18.952Z,6.68
2023-01-10T20:42:50.375Z,6.88
2023-01-10T20:45:21.823Z,7.25
2023-01-10T20:47:53.297Z,6.85
2023-01-10T20:50:24.707Z,6.60
2023-01-10T20:52:56.135Z,7.60
2023-01-10T20:55:27.833Z,7.22
2023-01-10T20:57:59.242Z,8.00
2023-01-10T21:00:31.599Z,7.05
2023-01-10T21:03:03.080Z,7.43
2023-01-10T21:05:34.602Z,7.65
2023-01-10T21:08:06.057Z,7.72
2023-01-10T21:10:37.487Z,7.72
2023-01-10T21:13:08.879Z,7.95
2023-01-10T21:15:41.402Z,7.25
2023-01-10T21:18:15.163Z,7.18
2023-01-10T21:20:47.274Z,7.85
2023-01-10T21:23:18.718Z,10.50
2023-01-10T21:25:51.331Z,10.65
2023-01-10T21:28:22.720Z,8.07
2023-01-10T21:30:54.184Z,8.00
2023-01-10T21:33:25.629Z,7.75
2023-01-10T21:35:57.951Z,8.02
2023-01-10T21:38:29.631Z,8.00
2023-01-10T21:41:07.655Z,7.38
2023-01-10T21:43:39.141Z,6.95
2023-01-10T21:46:10.674Z,7.15
2023-01-10T21:48:42.109Z,7.17
2023-01-10T21:51:13.487Z,6.90
2023-01-10T21:53:44.950Z,6.80
2023-01-10T21:56:16.372Z,6.57
2023-01-10T21:58:47.789Z,6.78
2023-01-10T22:01:19.303Z,6.25
2023-01-10T22:03:50.829Z,6.25
2023-01-10T22:06:22.385Z,6.53
2023-01-10T22:08:53.905Z,7.13
2023-01-10T22:11:25.338Z,6.50
2023-01-10T22:13:56.716Z,6.10
2023-01-10T22:16:28.289Z,6.57
2023-01-10T22:18:59.733Z,6.17
2023-01-10T22:21:31.172Z,5.68
2023-01-10T22:24:02.631Z,6.40
2023-01-10T22:26:34.101Z,6.90
2023-01-10T22:29:05.579Z,5.95
2023-01-10T22:31:37.075Z,6.03
2023-01-10T22:34:09.535Z,5.93
2023-01-10T22:36:41.086Z,5.80
2023-01-10T22:39:14.426Z,6.00
2023-01-10T22:41:45.911Z,5.75
2023-01-10T22:44:23.045Z,5.10
2023-01-10T22:46:55.467Z,5.30
2023-01-10T22:49:26.926Z,4.78
2023-01-10T22:51:58.335Z,4.80
2023-01-10T22:54:29.827Z,5.60
2023-01-10T22:57:01.214Z,5.03
2023-01-10T22:59:32.609Z,4.50
2023-01-10T23:02:04.075Z,4.50
2023-01-10T23:04:35.506Z,4.80
2023-01-10T23:07:06.901Z,4.22
2023-01-10T23:09:38.341Z,4.50
2023-01-10T23:12:09.765Z,4.13
2023-01-10T23:14:41.161Z,4.03
2023-01-10T23:17:12.562Z,4.00
2023-01-10T23:19:43.979Z,3.97
2023-01-10T23:22:15.359Z,3.85
2023-01-10T23:24:46.766Z,4.00
2023-01-10T23:27:18.187Z,4.15
2023-01-10T23:29:49.588Z,4.40
2023-01-10T23:32:21.029Z,3.50
2023-01-10T23:34:52.434Z,4.13
2023-01-10T23:37:23.834Z,4.35
2023-01-10T23:39:55.266Z,4.17
2023-01-10T23:42:26.712Z,3.67
2023-01-10T23:44:58.110Z,4.05
2023-01-10T23:47:29.522Z,4.00
2023-01-10T23:50:00.951Z,3.88
2023-01-10T23:52:32.324Z,3.70
2023-01-10T23:55:03.995Z,3.80
2023-01-10T23:57:35.394Z,3.90
